Portada
METAR-TAF:

METAR-TAF

Aeroports :

Tahití, Polinèsia Francesa

latitud: 17-33S, longitud: 149-37W, altitud: 2 m

Observació

L'informe es va fer fa 23 minuts, a les 21:00 UTC
Vent 15 kt del Nord-Est
Temperatura 31°C
Humitat 71%
Pressió 1013 hPa
Visibilitat 10 km o més
Escasses núvols a una alçada de 2000 ft

METAR: NTAA 202100Z 05015KT 9999 FEW020 31/25 Q1013 NOSIG

Hora: 11:23 (21:23 UTC)

Pronòstic

L'informe es va fer fa 4 hores i 23 minuts, a les 17:00 UTC
Pronòstic vàlid del 20 a les 18 UTC al 21 a les 24 UTC
Vent 15 kt del Nord-Est
Visibilitat 10 km o més
Escasses núvols a una alçada de 2500 ft
Núvols disperses a una alçada de 5000 ft
Evolucionant progressivament
l' 21 a les 03 UTC al 21 a les 05 UTC
Vent 2 kt amb direcció variable
Evolucionant progressivament
l' 21 a les 18 UTC al 21 a les 20 UTC
Vent 15 kt del Nord-Est

TAF: NTAA 201700Z 2018/2124 05015KT 9999 FEW025 SCT050 BECMG 2103/2105 VRB02KT BECMG 2118/2120 05015KT

Observacions i pronòstics meteorològics de més de 4000 aeroports (METAR i TAF).

Les estacions disponibles són els punts grocs i vermells al mapa.

Posi el ratolí al punt desitjat per veure el nom de l'estació.

Feu clic per veure les observacions i els pronòstics meteorològics.

Per canviar el mapa: feu clic els botons verds amb una creu de color negre per apropar; al botó verd amb un guió per allunyar la imatge; o en les fletxes verdes per a mapes adjacents.


METAR-TAF: